Resultat 2015

4e JOGGING DE LA DREVE      MARIEMONT   5/07/2015             
14,00 km 296 participants
Pla Dos Nom Club Cat. Pl. Km/H T/Km Temps Pts ch.
1 1354 WALIWENDER Simon OXY2000 SE 1 17,73 3:23 00:47:23 940,08
2 1367 BENOIT Thomas TRAKKS / NAC SE 2 16,41 3:39 00:51:11 902,17
3 1309 OUBOUSKOUR Brahim CRAC V1 1 16,03 3:45 00:52:25 890,08
4 306 BARAS Frédéric ACLO V1 2 15,96 3:46 00:52:37 887,04
5 1362 PERZINA Christophe ACLO SE 3 15,79 3:48 00:53:11 880,95
6 488 LIEGEOIS Logan J.C.Estinnes /   Zon.Lob. SE 4 15,34 3:55 00:54:46 866,91
7 339 PACQUET Dominique J.C.Estinnes V2 1 15,28 3:56 00:54:59 863,88
8 1403 VANDERSTRAETEN Patrick Training7 V2 2 15,18 3:57 00:55:20 859,84
9 1306 VAN LIERDE Philip E.AALST SE 5 15,18 3:57 00:55:21 858,36
10 1352 CAVYN Jean-Philippe Vertigo V1 3 15,07 3:59 00:55:45 853,98
11 594 ABETSETS Jean-Luc Vertigo V1 4 15,06 3:59 00:55:46 852,49
12 1304 HOET Elie AVR V2 3 14,95 4:01 00:56:12 847,91
13 1308 CHEHBOUNE Rachid individuel SE 6 14,89 4:02 00:56:24 845,08
14 1363 MORTIER Pierre La Thure V1 5 14,74 4:04 00:57:00 839,37
15 1476 MADONIA Bruno ACLO V1 6 14,71 4:05 00:57:07 837,18
16 1382 FRANCOIS Benoit Theodo Tempo SE 7 14,65 4:06 00:57:21 834,16
17 707 VAN BELLE Thomas ZATAC SE 8 14,60 4:07 00:57:33 831,39
18 1301 DE JONG Daniel Theodo Tempo V3 1 14,52 4:08 00:57:52 827,82
19 1315 BELLANTE Loris ACLO EH 1 14,47 4:09 00:58:03 825,19
20 1305 ENGLEBIN Kevin individuel SE 9 14,36 4:11 00:58:29 820,86
21 1445 VERBESSELT Kevin individuel SE 10 14,36 4:11 00:58:30 819,39
22 1429 BAOUF Fatiha DECATHLON A1 1 14,25 4:13 00:58:58 814,87
23 1396 VANAISE Jerome ET Chievres SE 11 14,25 4:13 00:58:58 813,52
24 1324 PRAET Jean-Paul VITA V3 2 14,15 4:14 00:59:21 809,61
25 1481 QUERTINMONT Yannick individuel SE 12 14,08 4:16 00:59:40 806,16
26 1386 STERCKX Fabrice NAC V1 7 14,06 4:16 00:59:45 804,26
27 633 BOUDART Mathieu Individuel SE 13 14,05 4:16 00:59:48 802,58
28 374 DE CONINCK Benoit JC Estinnes/El Binde   à Mickey V1 8 14,04 4:17 00:59:51 800,90
29 637 DEN HOUDYKER David Joggers Beersel SE 14 13,89 4:19 01:00:29 795,46
30 1346 COPPE Gilles Formyfit V1 9 13,74 4:22 01:01:09 789,90
31 493 BEIGNE Francis AMIS FB V2 4 13,66 4:24 01:01:29 786,47
32 376 FRANGELLA Fabrizio J.C.BRACQUEGNIES V1 10 13,64 4:24 01:01:36 784,40
33 490 CUSCHERA Pino El Binde à Mickey /   BJB V1 11 13,37 4:29 01:02:49 775,71
34 1330 BOBENRIETH Alexis TCDM SE 15 13,29 4:31 01:03:12 772,10
35 1409 ROLAND Jonathan individuel SE 16 13,27 4:31 01:03:18 770,16
36 679 GAILLY Gwetan Individuel SE 17 13,20 4:33 01:03:38 766,87
37 566 BASSELIER Nicolas Individuel SE 18 13,12 4:34 01:04:01 763,32
38 712 DUBOIS Thibaut OTC V1 12 13,10 4:35 01:04:07 761,39
39 1394 DE BIASI Michael individuel V1 13 13,08 4:35 01:04:13 759,47
40 523 FITDEVOIE Pierre Oumont V1 14 13,08 4:35 01:04:14 758,02
41 489 DEMINNE Thierry J.C.Estinnes V2 5 12,98 4:37 01:04:44 753,86
42 1374 D’ONOFRIO Davide individuel SE 19 12,93 4:38 01:04:57 751,30
43 487 FORREST Didier J.C.Estinnes V2 6 12,88 4:40 01:05:14 748,39
44 389 PATERNOTTE Fabrice ZATAC V1 15 12,85 4:40 01:05:22 746,30
45 343 MATON Ismaël Individuel SE 20 12,82 4:41 01:05:30 744,22
46 1369 MICHELS Kevin individuel SE 21 12,81 4:41 01:05:34 742,50
47 469 YAMUSAK Hasan RSCM V1 16 12,81 4:41 01:05:35 741,05
48 1436 TRAPANI Nicolas Individuel SE 22 12,74 4:43 01:05:57 737,72
49 1316 LIENARD Romain TCDM SE 23 12,73 4:43 01:06:00 736,09
50 584 ESPOSITO Vincenzo J.C.BRACQUEGNIES V1 17 12,72 4:43 01:06:01 734,65
51 1407 BAYOT Anne-Catherine individuel A1 2 12,69 4:44 01:06:12 732,31
52 1381 PILETTE Danny ACLO V2 7 12,61 4:46 01:06:38 728,67
53 311 KINDERMANS Jean-Pierre NAC V2 8 12,58 4:46 01:06:45 726,70
54 1397 BONNENEGE Benjamin Jette SE 24 12,56 4:47 01:06:52 724,73
55 519 NICOLAÏ Robert Individuel V2 9 12,53 4:47 01:07:03 722,42
56 1458 CLAUDE Julien James SE 25 12,50 4:48 01:07:11 720,38
57 1433 CHEVALIER Axel VERTIGO SE 26 12,46 4:49 01:07:26 717,73
58 454 HAULAIT Alain HAC V1 18 12,43 4:50 01:07:35 715,61
59 1336 ROMANI Fabien AMIS FB V1 19 12,41 4:50 01:07:40 713,83
60 1376 FRANCOTTE Mathias El Binde à Mickey EH 2 12,40 4:50 01:07:45 712,05
61 382 GRANIE Jean-Marc El Binde à Mickey V1 20 12,40 4:50 01:07:46 710,61
62 1417 MATHIEU Laurent Peronnes V1 21 12,39 4:51 01:07:47 709,17
63 1337 LAMBERT Christophe NAC V1 22 12,33 4:52 01:08:07 706,13
64 1413 BRUMEEL Stephane Individuel SE 27 12,31 4:52 01:08:14 704,18
65 1371 QUENSIER Sebastien Individuel SE 28 12,25 4:54 01:08:35 701,08
66 1443 KOLENDA Stany US PONT A CELLES SE 29 12,18 4:56 01:08:57 697,92
67 316 DERIVEAU Jean USBW V3 3 12,16 4:56 01:09:04 695,99
68 588 JORDAN Alex Tchats’Court SE 30 12,14 4:56 01:09:10 694,15
69 1423 BERNICH Olivier CARNIEROIS SE 31 12,13 4:57 01:09:14 692,47
70 312 COURBET Annick J.C.Ham-sur-Heure A2 1 12,11 4:57 01:09:21 690,54
71 1459 D’ACHILLE Jerome individuel SE 32 12,08 4:58 01:09:31 688,38
72 1494 WARGNIES Fabrice individuel SE 33 12,05 4:59 01:09:42 686,14
73 1400 AUVERSACK Geeffrey Les 4 fantastiques SE 34 12,04 4:59 01:09:46 684,47
74 1480 PROVENZANO Sylvia ACLO A1 3 11,95 5:01 01:10:16 680,73
75 1439 TRAPANI Jimmy Individuel SE 35 11,99 5:00 01:10:04 680,32
76 1420 INCONNU XXXXXXXXXX XX 1 11,91 5:02 01:10:32 676,76
77 1405 EUSTACHE Willy Individuel V1 23 11,89 5:03 01:10:39 674,86
78 1479 PAREIN Estelle individuel DA 1 11,89 5:03 01:10:39 673,50
79 624 DEWINNE Julien Neuvilles – Saintes SE 36 11,88 5:03 01:10:42 671,91
80 1329 VANNUSCORPS Frederic ACLO V1 24 11,86 5:04 01:10:49 670,01
81 1350 LEROY Brice individuel SE 37 11,86 5:04 01:10:49 668,66
82 365 DESOMBERG Philippe FRT V1 25 11,84 5:04 01:10:57 666,68
83 1418 COUSIN Benoit Tortues Meslinoises SE 38 11,83 5:04 01:11:01 665,02
84 1427 COCHIN Pierre FLEURUS ATH. V2 10 11,82 5:05 01:11:03 663,51
85 1339 BENOIT Michel NAC V2 11 11,77 5:06 01:11:22 660,70
86 1391 WASMES Jerome Individuel SE 39 11,73 5:07 01:11:36 658,27
87 1484 ROGMANS Ingrid NAC A1 4 11,72 5:07 01:11:41 656,54
88 603 LIEGEOIS Stéphane ESM V2 12 11,71 5:07 01:11:43 655,03
89 558 DE RUYTER Pierre-François ACLO SE 40 11,71 5:07 01:11:43 653,68
90 1310 DUBOIS Alain individuel V3 4 11,70 5:08 01:11:47 652,02
91 1345 TOUINA Kaddour individuel SE 41 11,70 5:08 01:11:49 650,51
92 1368 FARINACCIO Gianfranco GILDONE SE 42 11,69 5:08 01:11:53 648,85
93 617 PIZZOLATO Bruno Suricates Runners SE 43 11,67 5:08 01:11:57 647,20
94 414 DE VOOGHT Yves Fleurs Ath. SE 44 11,67 5:08 01:11:58 645,77
95 1410 DONKERWOLKE Luc Individuel SE 45 11,67 5:09 01:11:59 644,34
96 1333 WILMART Gilles individuel SE 46 11,67 5:09 01:12:00 642,90
97 308 KINDERMANS Nicolas C.A.B.W. SE 47 11,66 5:09 01:12:03 641,32
98 310 VANDERMEERS Laurent ESM SE 48 11,63 5:10 01:12:15 639,07
99 549 COPPIN Philippe INdividuel V2 13 11,63 5:10 01:12:15 637,72
100 1401 GIARGDINA Gizziana Les 4 fantastiques DA 2 11,61 5:10 01:12:21 635,91
101 1335 BERTI Piero AMIS FB V1 26 11,60 5:10 01:12:23 634,41
102 546 GALLUCCIO Antonio Individuel V2 14 11,59 5:11 01:12:27 632,76
103 463 PARISIS Marie-Christine ACLO/BJB A4 1 11,58 5:11 01:12:31 631,10
104 1387 BAELE Pierre Individuel V3 5 11,56 5:11 01:12:40 629,08
105 307 SERET Thomas individuel SE 49 11,54 5:12 01:12:46 627,29
106 348 DE VREESE Marc J.C.ESTINNES V2 15 11,54 5:12 01:12:46 625,93
107 1360 MILANI Jean-Pol CMIP69 ### 1 11,54 5:12 01:12:49 624,35
108 428 FERAUCHE John Individuel V1 27 11,53 5:12 01:12:51 622,85
109 1320 MACALUSO Pietro individuel V3 6 11,50 5:13 01:13:02 620,69
110 1390 QUENON Fredric VERTIGO V1 28 11,50 5:13 01:13:04 619,19
111 616 TURCK Pascale THEODO TEMPO A1 5 11,49 5:13 01:13:07 617,62
112 1388 REY Philippe Individuel SE 50 11,48 5:14 01:13:09 616,11
113 702 D’ADDABBO Oronzo Tchats’Court V2 16 11,44 5:15 01:13:25 613,60
114 1467 DUQUESNE Emmanuel individuel SE 51 11,44 5:15 01:13:27 612,10
115 701 BALDARELLI Fabio Tchats’Court V1 29 11,44 5:15 01:13:27 610,74
116 668 LATTUCA Giuseppe J.C.BRACQUEGNIES V1 30 11,43 5:15 01:13:28 609,32
117 321 BATTARD Vincent Individuel V2 17 11,41 5:16 01:13:38 607,24
118 328 HERPAIN Cedric individuel V1 31 11,38 5:16 01:13:48 605,17
119 351 ROUSSEAU Laurence ACLO A1 6 11,35 5:17 01:13:59 603,03
120 453 ATATY Kevin J.T.Besonrieux SE 52 11,35 5:17 01:14:02 601,46
27 ALBERT Michel Irun@Waterloo V2 18 11,33 5:18 01:14:10 600,11
121 448 MESTRINER Alain Peronnes V1 32 11,31 5:18 01:14:15 599,19
122 1372 RARY Aime ZONARDS THUIN/LOB. V2 19 11,30 5:19 01:14:20 597,48
123 1422 BOERO Roberto CLABECQ V2 20 11,27 5:19 01:14:32 595,28
124 464 BOSCO Marco FRT V4 1 11,26 5:20 01:14:35 593,71
125 1370 BELFIORE Pietro AMIS JOGGEURS SE 53 11,26 5:20 01:14:37 592,22
126 367 BAKRIM Fatima Born to run A2 2 11,23 5:21 01:14:48 590,10
127 1431 SPELMANS Christophe BORN TO RUN V1 33 11,22 5:21 01:14:53 588,39
128 582 LEEMANS Denis J.T.Besonrieux V1 34 11,12 5:24 01:15:33 584,29
129 1347 MEYVISCH Jean-Christophe Togishi Dojo SE 54 11,12 5:24 01:15:34 582,86
130 1441 MEUNIER Michael Individuel SE 55 11,11 5:24 01:15:37 581,30
131 452 ATATY Christian JT Besonrieux/HAC V3 7 11,10 5:24 01:15:40 579,74
132 342 LEJEUNE Jean HAC V4 2 11,08 5:25 01:15:50 577,71
133 647 DE LEENER Jean-Marie NAC V3 8 11,06 5:26 01:15:59 575,75
134 1340 VANPOUCKE Jean NAC V2 21 11,05 5:26 01:16:00 574,32
135 1411 DUTRY Jean-Marc TOTAL V2 22 11,02 5:27 01:16:14 572,03
136 1442 EQUINET Frederic Individuel V1 35 11,02 5:27 01:16:15 570,60
137 317 BARBIER Yves HAC V2 23 11,00 5:27 01:16:21 568,85
138 334 DESMEDT Cindy Joggers Beersel A1 7 10,99 5:28 01:16:28 567,03
139 1399 DI FELICE Geremy Individuel SE 56 10,97 5:28 01:16:33 565,34
140 420 SPITALERI Mario Tchats’Court V2 24 10,96 5:29 01:16:40 563,52
141 1478 MOINS Sebastien individuel SE 57 10,92 5:30 01:16:57 561,04
142 536 HENNEBERT Adony Irun@Waterloo EH 3 10,91 5:30 01:17:01 559,42
143 1470 GLINNE Audrey individuel DA 3 10,89 5:30 01:17:06 557,74
144 1357 OUATARA Hamed Individuel SE 58 10,88 5:31 01:17:14 555,86
145 1358 LEMERCIER Roxane NAC DA 4 10,87 5:31 01:17:17 554,31
146 700 BALDARELLI Teresa OTS A2 3 10,85 5:32 01:17:24 552,50
147 567 MULLER Olivier Individuel V1 36 10,83 5:33 01:17:35 550,43
148 421 ROUSSEL Cedric Suricates Runners SE 59 10,80 5:33 01:17:46 548,36
149 1349 THIS Laurent Togishi Dojo SE 60 10,76 5:35 01:18:06 545,73
150 1317 DRUGMAND Pascal ACLO V1 37 10,74 5:35 01:18:14 543,86
151 1385 PEREZ Carlos individuel V1 38 10,73 5:35 01:18:15 542,44
152 1313 TIELEMANS Philippe RUN4VILLERS V2 25 10,69 5:37 01:18:35 539,82
153 1359 DE MUNCK Veronique NAC A2 4 10,64 5:38 01:18:55 537,21
154 1334 LAURENT Alain NAC V2 26 10,59 5:40 01:19:17 534,49
155 665 BERTRAND Dominique Theodo Tempo SE 61 10,58 5:40 01:19:23 532,76
156 1426 VAN DEN BERG Frederic Theodo Tempo V1 39 10,58 5:40 01:19:25 531,28
157 1428 HOST Vincent Theodo Tempo V1 40 10,58 5:40 01:19:25 529,93
158 1398 MALBECQ Alain La forstiere V1 41 10,57 5:41 01:19:30 528,26
159 1307 DANNEAU Vincent ACLO V1 42 10,55 5:41 01:19:35 526,60
160 1322 CASSANO Renato individuel V1 43 10,52 5:42 01:19:49 524,39
161 1437 BRUCCOLERI Manu Individuel V1 44 10,50 5:43 01:20:01 522,30
162 1440 BERTRAND Bruno Tortues Meslinoises SE 62 10,48 5:43 01:20:08 520,52
163 424 CERISIER Delphine Suricates Runners A1 8 10,47 5:44 01:20:13 518,86
164 1435 SCHIFANO Marie-Therese Individuel A1 9 10,46 5:44 01:20:19 517,14
165 337 AZZARELLI Jean-Claude ACLO V2 27 10,45 5:45 01:20:23 515,55
166 513 DEHON Michel ACLO V2 28 10,45 5:45 01:20:23 514,19
167 1366 WAUTERS Olivier individuel ### 2 10,45 5:45 01:20:24 512,77
168 1430 GUEUNING Thierry Individuel V1 45 10,43 5:45 01:20:33 510,88
169 611 CHAKIR Ahmed Suricates Runners SE 63 10,41 5:46 01:20:40 509,10
170 497 BILLOT Pierre BPC V1 46 10,41 5:46 01:20:40 507,75
171 1379 JENARD Aurelien Individuel SE 64 10,37 5:47 01:20:58 505,32
172 1351 MERTENS Patricia Vertigo A2 5 10,31 5:49 01:21:30 502,08
173 380 BAUDUIN Elzo J.C.Estinnes V2 29 10,30 5:49 01:21:32 500,61
174 324 MAROT Anne USBW A3 1 10,29 5:50 01:21:38 498,90
175 1393 BRUNO Luigi CRAC V2 30 10,27 5:50 01:21:46 497,08
176 416 POULAIN Freddy Individuel V2 31 10,27 5:51 01:21:48 495,60
177 627 BARTHELEMI Sandrine individuel DA 5 10,24 5:51 01:22:00 493,55
178 622 CHERCHI Rodolfo Tchats’Court V1 47 10,24 5:51 01:22:00 492,20
179 649 DELHAYE Jean-Charles Individuel V2 32 10,24 5:52 01:22:03 490,67
180 1415 BAN Annamaria Individuel A2 6 10,23 5:52 01:22:07 489,08
181 1416 TANCREDI Alfredo Individuel V1 48 10,23 5:52 01:22:07 487,72
182 1424 DI GIUSEPPE Angelo BXN V1 49 10,22 5:52 01:22:10 486,20
183 431 GUYOT Frederic El Binde à Mickey SE 65 10,22 5:52 01:22:12 484,72
184 475 CUSCHERA Mickey El Binde à Mickey V1 50 10,22 5:52 01:22:12 483,37
185 371 ZISKOS Lazaros RRB V1 51 10,18 5:54 01:22:29 481,04
186 1377 RYCKAERT Alain Tortues Meslinoises V1 52 10,15 5:55 01:22:46 478,71
187 587 SCHOONHEYT Claude BJB V2 33 10,14 5:55 01:22:48 477,24
188 407 HEMERYCK Michel BJB V1 53 10,14 5:55 01:22:51 475,72
189 697 BROGNEZ Laurent NAC SE 66 10,11 5:56 01:23:04 473,63
190 364 GRENIER Laurent individuel SE 67 10,09 5:57 01:23:13 471,77
191 1425 DRAGOTTA Gaetano BXN V1 54 10,06 5:58 01:23:28 469,57
192 1421 ELGOYHEN Catherine Individuel A1 10 10,05 5:58 01:23:34 467,88
193 1444 HOYOIS Bernard Individuel V1 55 10,05 5:58 01:23:37 466,36
194 1488 THYS Thomas individuel SE 68 10,05 5:58 01:23:37 465,00
195 609 EL BAAMRANI Karim Suricates Runners SE 69 10,03 5:59 01:23:44 463,26
196 1343 CARON Fabienne individuel A2 7 10,02 5:59 01:23:49 461,62
197 1353 SICILIANO Michel ACLO V3 9 10,00 6:00 01:24:01 459,60
198 1302 DHOLLANDE Williams individuel SE 70 9,99 6:00 01:24:05 458,03
199 662 HEMERYCK Florian BJB EH 4 9,98 6:01 01:24:09 456,45
200 1438 LEMAIRE Hubert Individuel V2 34 9,98 6:01 01:24:12 454,93
201 683 TIBERGHEIN Emmanuel Individuel SE 71 9,97 6:01 01:24:17 453,30
202 1452 BAZZANELLA Gianfranco individuel SE 72 9,96 6:01 01:24:19 451,84
203 387 STEENS Emiel J.C.Estinnes V2 35 9,94 6:02 01:24:31 449,83
204 1432 MICHAUX Henri FRT V1 56 9,93 6:03 01:24:38 448,09
205 1341 JOLY Michel NAC V1 57 9,92 6:03 01:24:40 446,62
206 1485 SABLON Dominique CRAC V1 58 9,91 6:03 01:24:48 444,84
207 1461 DELBOUILLE Thierry individuel V1 59 9,89 6:04 01:24:55 443,10
208 1319 JANSENS Roland Tortues Meslinoises V2 36 9,85 6:06 01:25:17 440,56
209 554 BRIDOUX Pascale J.T.Besonrieux A2 8 9,84 6:06 01:25:24 438,83
210 432 HENSOTTE Valerie Individuel A1 11 9,83 6:06 01:25:25 437,42
211 714 BRUNO Carole Individuel A1 12 9,83 6:06 01:25:29 435,86
212 1356 MOREAU Francoise NAC A2 9 9,81 6:07 01:25:36 434,13
213 1465 DJEUNANG Maurice Cel. individuel V1 60 9,81 6:07 01:25:40 432,56
214 1474 LECOUTURIER Evelyne JCPMF Binche A1 13 9,80 6:07 01:25:41 431,15
215 1355 PUISSANT Valerie NAC A2 10 9,79 6:08 01:25:46 429,53
216 1364 PRESTI Giovanni BJB V3 10 9,79 6:08 01:25:50 427,96
217 695 MEULEMAN Thierry ACLO V1 61 9,78 6:08 01:25:54 426,40
218 1414 GLINNE Lionel Individuel V1 62 9,77 6:08 01:25:57 424,88
219 1392 CAMBIER Dimitri individuel V2 37 9,75 6:09 01:26:08 422,95
220 601 ALMONTE Franco Zoning Lobbes/Thuin V3 11 9,74 6:09 01:26:12 421,38
221 1468 GALANT Anne Tortues Meslinoises A1 14 9,74 6:10 01:26:13 419,97
222 704 BOUDART David Individuel V1 63 9,73 6:10 01:26:20 418,25
223 591 LECHIEN Brigitte Individuel A2 11 9,72 6:10 01:26:24 416,69
224 543 CINO Angelo ACLO V1 64 9,71 6:11 01:26:29 415,07
225 1477 MESURE Christelle individuel A1 15 9,70 6:11 01:26:37 413,30
226 388 LAMBRET Christelle Theodo Tempo A1 16 9,69 6:12 01:26:42 411,69
227 1383 DEREUME Pascal Theodo Tempo V2 38 9,69 6:12 01:26:42 410,33
228 1312 BOCKLANDT Julian Theodo Tempo SE 73 9,69 6:12 01:26:43 408,92
229 634 DEFER Jean-Claude Théodo Tempo SE 74 9,68 6:12 01:26:44 407,52
230 1419 CSUCCIMARRI Manola Peronnes A1 17 9,64 6:13 01:27:08 404,92
231 1331 FLONET Nathalie ROS A1 18 9,64 6:14 01:27:09 403,52
232 1373 INCONNU XXXXXXXXXX XX 2 9,61 6:15 01:27:23 401,45
233 1487 TAHID Mélissa individuel DA 6 9,57 6:16 01:27:46 398,92
234 1332 DISTAVE Dany individuel V1 65 9,56 6:16 01:27:50 397,37
235 393 MAES Isabelle Zonards Lobbes A1 19 9,55 6:17 01:27:59 395,56
236 305 CASTIAUX Freddy J.C.Estinnes V2 39 9,55 6:17 01:28:00 394,15
237 1402 HONNOF Pascal Individuel V1 66 9,53 6:18 01:28:07 392,44
238 1361 BEKEYSER Carine NAC A2 12 9,53 6:18 01:28:11 390,89
239 319 LAMBERT Bernadette ACLO A5 1 9,51 6:19 01:28:21 389,03
240 434 QUERTINMONT Franck Zoning  Lobbes V1 67 9,50 6:19 01:28:28 387,33
241 1344 LATTUCA Marielle ACLO A1 20 9,48 6:20 01:28:39 385,43
242 1483 RIO Julie James DA 7 9,48 6:20 01:28:39 384,07
243 1327 COCCIASECCA Alessandro AMIS FB V2 40 9,47 6:20 01:28:41 382,62
244 1326 MARIANO Salvatore AMIS FB V3 12 9,47 6:20 01:28:42 381,21
245 1380 PATERNOSTRE Stephanie JCPMF GENAPPE A1 21 9,46 6:21 01:28:48 379,56
246 686 GUERIN Veronique Individuel A2 13 9,42 6:22 01:29:10 377,12
247 595 BATTAGLIA Stéfania RACLO A2 14 9,41 6:23 01:29:18 375,38
248 1389 VILLATTE Veronique individuel A2 15 9,37 6:24 01:29:41 372,90
249 392 ARTONE Bernardino BJB V3 13 9,37 6:24 01:29:41 371,55
250 1303 VALET Philippe individuel V1 68 9,34 6:26 01:29:58 369,37
251 477 GORNIAK Alain J.C.Anderlues V3 14 9,32 6:26 01:30:08 367,54
252 461 DUMOULIN Jean-Marie Individuel V2 41 9,31 6:27 01:30:12 365,99
253 1448 GRINNELL Guy individuel V1 69 9,31 6:27 01:30:16 364,44
254 1454 BERTLEFF Laura individuel DA 8 9,31 6:27 01:30:16 363,09
255 1384 DELMOTTE Christine individuel A2 16 9,30 6:27 01:30:19 361,59
256 626 THIRIONET Robert Suricates Runners V1 70 9,25 6:29 01:30:47 358,90
257 1469 GALANT Damien Tortues Meslinoises SE 75 9,25 6:29 01:30:49 357,45
258 1406 JEANNE Christian Individuel V2 42 9,21 6:31 01:31:15 354,88
259 1482 RENIERE Aude OCAN A1 22 9,18 6:32 01:31:30 352,82
260 669 BESANGER Richard FRT V5 1 9,17 6:33 01:31:35 351,23
261 1375 GALANT Jean-Marie Tortues Meslinoises V5 2 9,17 6:33 01:31:36 349,83
262 1321 MASTROCRISTINO Vanessa JCPMF A1 23 9,16 6:33 01:31:40 348,29
263 1457 CHIUSANO Maria Teresa ESM / JCPMF A1 24 9,16 6:33 01:31:40 346,94
264 1412 RIGUELLE Eric RC NAMUR V1 71 9,16 6:33 01:31:41 345,53
265 330 TONDEUR Laurence JC Estinnes A1 25 9,13 6:34 01:31:58 343,39
266 354 FEROLA Maria ACLO/JC Estinnes A1 26 9,13 6:34 01:31:59 341,99
267 429 GOBERT Valerie ACLO A1 27 9,13 6:34 01:32:00 340,59
268 1325 VAN ELVEN Veronique Preoles A2 17 9,13 6:34 01:32:01 339,19
269 615 CHEVALIER Manon J.C.BRACQUEGNIES DA 9 9,12 6:35 01:32:08 337,51
271 314 DOS REIS Lidia HAC A3 2 9,11 6:35 01:32:13 334,57
272 556 REHO Donato ZATAC V4 3 9,07 6:37 01:32:39 332,03
273 383 VAN MELKEBEKE Georges B.J.B. V5 3 9,04 6:38 01:32:53 330,04
274 1365 MICCICHE Maria BJB A2 18 8,73 6:52 01:36:12 320,02
275 1471 GRACEFFA Sandrina ACLO A1 28 8,72 6:53 01:36:20 318,33
276 604 DHAENE Ann JCSA A5 2 8,68 6:55 01:36:46 315,89
277 390 BOONAERT Hilaire JCSA/PROMU V4 4 8,65 6:56 01:37:05 313,75
278 1378 LENOIR Gerard Tortues Meslinoises V2 43 8,60 6:59 01:37:43 310,84
279 1462 DE LOOF Jean-Marc individuel V2 44 8,56 7:00 01:38:06 308,55
280 338 MALVOZ Jean-Remy ESM V4 5 8,53 7:02 01:38:28 306,31
281 1446 MEAN Carole individuel A1 29 8,46 7:05 01:39:14 303,12
282 1447 DESTENAY Patrick individuel V1 72 8,46 7:05 01:39:15 301,72
283 1395 SMETS Alain ACLO V2 45 8,42 7:08 01:39:46 299,15
284 1404 LETE Michel ACLO V2 46 8,42 7:08 01:39:47 297,76
285 570 COUPLET Sabine Vitalité A2 19 8,42 7:08 01:39:48 296,36
286 1488 JANUS Jolika KAVS V5 6 8,42 7:08 01:39:48 292,36
287 506 LETOR Lolanne Zonards Lobbes DA 10 8,23 7:18 01:42:05 289,77
288 1300 VARISELLI Franco AMIS FB V5 5 8,18 7:20 01:42:39 287,16
289 641 MAUS Madeleine NAC A3 3 8,15 7:22 01:43:01 284,99
290 1342 DEBAUQUE Frederic individuel V1 73 8,15 7:22 01:43:02 283,60
291 413 MATTIOLI Jean-Marie J.C.BRACQ V3 15 8,07 7:26 01:44:05 279,96
292 1311 FRAIGNEUX Helene individuel DA 11 7,93 7:34 01:45:54 274,76
293 422 VANCAUTEREN Severine RUN PAC DA 12 7,93 7:34 01:45:56 273,33
294 315 LEROY    Paulette J.C.Estinnes /   Zon.Lob. A4 2 7,39 8:07 01:53:44 256,87
295 446 DESCAMPS Véronique J.C.BRACQUEGNIES A2 20 7,39 8:07 01:53:44 255,51
296 409 MABILLE Léopold JC BRACQ V5 7 7,28 8:15 01:55:27 251,11
297 899 BLAIRON Oscar J.C.Estinnes V4 6 AIDE CHALLENGE
298 897 ROBERT Jean-Marie J.C.Estinnes V1 74 AIDE CHALLENGE
299 341 TRESIGNIES Georges individuel SE 76 ORGANISATEUR
4e   JOGGING DE LA DREVE      MARIEMONT   5/07/2015                                                                                             Bitmap

7,10 km 342 Participants  
Pla Dos Nom Club Cat. Pl. Km/H T/Km Temps Pts ch.
1 79 MOLLA Demeke J.C.Estinnes SE 1 17,35 3:27 00:24:33 893,45
2 1145 BENOIT Mathieu TRAKKS / NAC SE 2 17,01 3:32 00:25:03 882,66
3 81 BOSSANT Jean-François FER V1 1 16,50 3:38 00:25:49 867,46
4 1065 CULUS Thomas CABW SE 3 16,38 3:40 00:26:00 863,07
5 1069 VANDERROOST Davy VITA NINOVE SE 4 16,35 3:40 00:26:03 861,03
6 1068 VERMEERSCH Stijn Individuel SE 5 16,22 3:42 00:26:16 856,11
7 1216 EL KADERI Ahmed CRAC SE 6 16,13 3:43 00:26:25 852,39
8 1112 HOUDART Pierre ACLO / J.C.Estinnes SE 7 16,09 3:44 00:26:29 850,09
9 43 D’AURILIO Simeon Joggers Beersel EH 1 15,83 3:47 00:26:55 841,74
10 1066 PENNE Mario NINOVE V1 2 15,54 3:52 00:27:25 832,55
11 1110 VANDENABEELE Kilian ACLO EH 2 15,52 3:52 00:27:27 830,86
12 28 LETE Loic OXY 2000 SE 8 15,39 3:54 00:27:41 826,06
13 1196 SAUSSEZ Amelie ACLO DA 1 15,25 3:56 00:27:56 821,07
14 149 HADJ Paul JC BRACQ V1 3 15,10 3:58 00:28:13 815,65
15 132 WOZNY Eric RRB/CRAC V2 1 15,08 3:59 00:28:15 813,99
16 163 RISO Francisco J.C.Estinnes SE 9 15,05 3:59 00:28:18 812,08
17 40 MARIEN Jessica USWB DA 2 15,04 3:59 00:28:20 810,42
18 58 MARTORANA Antonio Individuel V2 2 14,90 4:02 00:28:35 805,61
19 52 HEYDEN Olivier ACBBS V1 4 14,80 4:03 00:28:47 801,56
20 212 D’AURILIO Marvin Joggers Beersel EH 3 14,79 4:03 00:28:48 800,16
21 165 MASSOELS Patrick Individuel V2 3 14,65 4:06 00:29:05 794,99
22 1249 inconnu xxxxxxxxxxxxxx xx 1 14,63 4:06 00:29:07 793,36
23 25 VAILLANT Sebastien OXY 2000 SE 10 14,59 4:07 00:29:12 791,03
24 77 TEGAS Giovanni AMIS F.B. V2 4 14,42 4:10 00:29:32 785,29
25 265 CECI Armando J.C.Estinnes V1 5 14,21 4:13 00:29:59 778,11
26 1043 TIBERT Jeremy Individuel SE 11 14,15 4:14 00:30:06 775,42
27 221 DOYEN Maxime J.C.Estinnes/Zonards   Lobbes SE 12 14,05 4:16 00:30:19 771,44
28 1118 SIMON Gwenaelle OXY2000 DA 3 13,83 4:20 00:30:48 764,15
29 1224 LATORRATA Pietro ACLO V1 6 13,83 4:20 00:30:48 762,98
30 1128 DI FRANCO Jason Individuel SE 13 13,62 4:24 00:31:16 756,08
31 203 VANDERSTRAETEN Kenzo Training7 JH 1 13,60 4:25 00:31:19 754,31
32 1082 BLONDEAU Gregory CROSSFIT LaLouviere SE 14 13,60 4:25 00:31:20 752,94
33 1217 VANDENBERGH Margaux CABW DA 4 13,58 4:25 00:31:22 751,38
34 116 DEPRETS Eddy FRT / ACLO V1 7 13,57 4:25 00:31:23 750,01
35 1062 OUBOUSKOUR Oumaima CRAC ED 1 13,55 4:26 00:31:26 748,24
36 1218 CULOT Dominique NAC V2 5 13,45 4:28 00:31:41 744,11
37 1063 HOPPEN Alain AMIS FB SE 15 13,36 4:29 00:31:53 740,60
38 1085 OLIVA Eric individuel SE 16 13,30 4:31 00:32:02 737,69
39 1171 SALET Andy Individuel SE 17 13,26 4:32 00:32:08 735,38
40 1071 D’ALOISIO Michael ACLO SE 18 13,25 4:32 00:32:09 734,02
41 184 GORNIAK Allan JC HsH JH 2 13,20 4:33 00:32:16 731,52
42 8 VAN HECKE Georges J.C.Estinnes V3 1 13,19 4:33 00:32:18 729,98
43 1243 ROLAND Brieuc ACLO EH 4 13,18 4:33 00:32:19 728,62
44 1004 BRASSEUR Loic Individuel SE 19 13,18 4:33 00:32:20 727,27
45 1061 OUBOUSKOUR Aicha CRAC DA 5 13,15 4:34 00:32:24 725,35
46 1247 DENEUBOURG Benoit Individuel SE 20 13,15 4:34 00:32:24 724,18
47 1037 RENAUT Jonathan Athleticop’s SE 21 13,12 4:34 00:32:28 722,27
48 1150 MOI Julien Individuel SE 22 13,11 4:35 00:32:29 720,92
49 123 ROOS Joël Individuel V1 8 13,05 4:36 00:32:39 717,89
50 1006 BRAYEUR Philippe Individuel SE 23 13,03 4:36 00:32:41 716,35
51 1183 GERBOUX Olivier Individuel V1 9 12,95 4:38 00:32:53 712,99
52 1058 OLIVIERO Remo AMIS F.B. V4 1 12,94 4:38 00:32:55 711,45
53 108 WINDAL Patricia J.C.Montagnard A1 1 12,94 4:38 00:32:55 710,29
54 1168 ZGAJEWSKI Emilien ACLO JH 3 12,92 4:39 00:32:59 708,40
55 1129 MORTIER Nicolas LA THURE JH 4 12,92 4:39 00:32:59 707,23
56 1195 NYFFELS Manuel ACLO SE 24 12,89 4:39 00:33:03 705,34
57 186 VAN DEN ELSEN J-Pierre BJB V3 2 12,87 4:40 00:33:06 703,63
58 1086 CHEVALIER Bastien CROSSFIT LaLouviere SE 25 12,84 4:40 00:33:10 701,75
59 239 PREAUX Benjamin J.C.Estinnes JH 5 12,84 4:40 00:33:11 700,40
60 1163 FONTAINE Fabian QUADRA SYMPA V1 10 12,82 4:41 00:33:14 698,70
61 1208 DEROY Philippe ZATAC V3 3 12,82 4:41 00:33:14 697,53
62 1127 PACE Mirco Tchat’s Cours JH 6 12,68 4:44 00:33:35 692,66
63 231 DE WACHTER Cédric irun@waterloo EH 5 12,68 4:44 00:33:36 691,32
64 1238 VANDERVONDELEN Laurent Individuel SE 27 12,57 4:46 00:33:54 687,03
65 1018 EXPOSITO Y MARTINEZ Miguel Individuel SE 28 12,49 4:48 00:34:06 683,82
66 49 ADANT Quentin individuel EH 6 12,49 4:48 00:34:06 682,65
67 60 JONCKHEER Frédéric individuel SE 29 12,47 4:49 00:34:10 680,81
68 1059 VOLINO Fabrizio Individuel V1 11 12,35 4:51 00:34:29 676,46
69 1053 D’ALESSIO Maria Individuel A1 2 12,34 4:52 00:34:32 674,80
70 1144 ZORSU Tayfun Individuel SE 30 12,26 4:54 00:34:44 671,66
71 1055 PERSOONS Katrien VITA DA 6 12,21 4:55 00:34:53 669,03
72 1158 JAUNIAUX Jean-Michel Individuel SE 31 12,21 4:55 00:34:54 667,70
73 57 LIEGEOIS Pascal ESM / J.C.Estinnes V2 6 12,15 4:56 00:35:03 665,08
74 1070 LUISI Dominique Individuel A2 1 12,14 4:56 00:35:05 663,60
75 146 SCHOONHEYT Nicolas B.J.B. EH 7 12,11 4:57 00:35:11 661,47
76 1115 DUSSAUSSOIS Emma ACLO JD 1 12,01 5:00 00:35:28 657,62
77 234 GRENIER Sabine ACLO A1 3 12,02 5:00 00:35:27 656,61
78 62 FRAGAPANE Calogero J.C.BRACQ. V3 4 12,03 4:59 00:35:25 655,76
79 1014 DENIS Sebastien Athleticop’s SE 32 12,04 4:59 00:35:23 654,91
80 1164 FONTAINE Clement JCPMF JH 6 12,06 4:58 00:35:19 654,37
81 1123 ALESSI Antonio FB V2 7 12,07 4:58 00:35:17 653,52
82 1260 VITRANT Steven ENL WP EH 8 11,98 5:00 00:35:33 649,84
83 261 EMPAIN Daniel Tchats’Cours V1 12 11,98 5:01 00:35:34 648,52
84 1202 DELESTIENNE Dave Individuel SE 33 11,96 5:01 00:35:37 646,88
85 1201 NAVEZ Tommy Individuel EH 9 11,96 5:01 00:35:38 645,56
86 227 ALBERTON Dario OXY2000 V2 8 11,94 5:01 00:35:40 644,09
87 268 LHERMITE Paul Individuel SE 34 11,94 5:02 00:35:41 642,77
88 1259 LEEMANS Yannick ENL WP SE 35 11,93 5:02 00:35:42 641,44
89 140 GEERAERTS Magali CSF DA 7 11,84 5:04 00:35:59 637,67
90 1233 LARDINOIS Julien Individuel SE 36 11,84 5:04 00:35:59 636,50
91 283 ADANS Julien R.C.Namur SE 37 11,84 5:04 00:35:59 635,34
92 1060 OUBOUSKOUR Samira CRAC JD 2 11,78 5:05 00:36:09 632,65
93 1220 COYETTE Fabian Individuel SE 38 11,76 5:06 00:36:13 630,88
94 1102 CAUDRON Olivier Individuel SE 39 11,73 5:07 00:36:19 628,82
95 1328 BONGIOVANNI Virgine ACLO A1 4 11,61 5:10 00:36:41 624,40
96 1194 AULIT Berengere Individuel A1 5 11,64 5:09 00:36:35 624,11
97 1016 DI LETO Alexis Individuel SE 40 11,68 5:08 00:36:29 623,83
98 694 MEULEMAN Theo ACLO JH 7 11,70 5:08 00:36:24 623,41
99 153 WALRAVENS Léa NAC A4 1 11,52 5:12 00:36:58 617,26
100 1133 MORASSUTTI Massimo INdividuel SE 41 11,51 5:13 00:37:01 615,66
101 129 TINCK Daniel NAC V4 2 11,46 5:14 00:37:11 613,06
102 1120 DEFONTAINE Sebastien Individuel SE 42 11,45 5:14 00:37:12 611,75
103 228 MACHIELS Jean-Pierre Individuel V2 9 11,43 5:15 00:37:17 609,88
104 1117 BERTOUILLE Benoit Individuel V1 13 11,41 5:15 00:37:20 608,28
105 1205 DURAY Salome Individuel JD 3 11,39 5:16 00:37:24 606,55
106 160 CEREGHETTI Thomas Individuel SE 43 11,38 5:16 00:37:27 604,96
107 1174 DENIS Laurent E.T.Chievres SE 44 11,37 5:17 00:37:29 603,52
108 113 CHAUVAUX Anne Tchats’Cours DA 8 11,35 5:17 00:37:32 601,93
109 9 MARONET Bruno individuel V1 14 11,34 5:17 00:37:33 600,62
110 1026 LECHIEN Pierre-Baptiste Individuel SE 45 11,33 5:18 00:37:35 599,18
111 222 EMPAIN Nolhan Tchats’Cours JH 9 11,32 5:18 00:37:37 597,73
112 1064 HEERMAN Arnaud J.C.Mariemont SE 46 11,29 5:19 00:37:43 595,73
113 204 VANDERSTRAETEN Luca VITA JH 10 11,24 5:20 00:37:55 592,91
114 1255 DI DIO Samuel individuel SE 47 11,22 5:21 00:37:59 591,20
115 1170 MOI DAISY INdividuel DA 9 11,19 5:22 00:38:04 589,35
116 1228 SNYDERS Rony Individuel SE 48 11,15 5:23 00:38:12 587,10
117 1040 SCIASCIA Anthony Individuel SE 49 11,15 5:23 00:38:13 585,80
118 1046 WABIK Stephanie Individuel DA 10 11,15 5:23 00:38:13 584,63
119 1045 VULLO Angelo Individuel SE 50 11,15 5:23 00:38:13 583,47
120 1007 BUSIEAUX Adrian Individuel SE 51 11,14 5:23 00:38:14 582,16
121 1124 LARDINOIS Adrien Individuel SE 52 11,10 5:24 00:38:22 579,92
122 1181 JAMOTTON Edouard 4 FANTASTIQUES SE 53 11,08 5:25 00:38:27 578,09
123 1236 FORGIONE Gianni Individuel SE 54 11,07 5:25 00:38:28 576,79
124 157 VANDENHEEDE Chantal J.C.Mariemont A4 2 11,07 5:25 00:38:29 575,49
125 1254 CURATOLO Bruno individuel SE 55 11,05 5:26 00:38:34 573,66
126 1125 CHAMIZO Michael Individuel SE 56 11,05 5:26 00:38:34 572,49
127 1107 BASTIN Noemy Individuel SE 57 11,04 5:26 00:38:36 571,06
128 1114 DELATTRE Arnaud J.T.Besonrieux SE 58 11,03 5:26 00:38:37 569,76
129 1080 IZZARELLI Donato AMIS FB V2 10 11,02 5:27 00:38:39 568,33
130 32 PLUMET William HTT V4 3 11,02 5:27 00:38:39 567,17
131 1141 SORDO Richard Individuel V1 15 10,97 5:28 00:38:49 564,68
132 48 DIRICQ Dominique CABW V2 11 10,95 5:29 00:38:54 562,87
133 152 SEL Michel ACLO V5 1 10,94 5:29 00:38:57 561,31
134 1049 WUYTACK Stephy Individuel A1 6 10,93 5:29 00:38:59 559,88
135 1143 ZORSU Emmanuella Individuel DA 11 10,89 5:31 00:39:08 557,55
136 1237 DEPREZ Loan Individuel EH 10 10,87 5:31 00:39:11 556,00
137 20 PATER Jocelyne RACLO A4 3 10,86 5:32 00:39:14 554,45
138 1005 BRUN Fabian Individuel V1 16 10,83 5:32 00:39:20 552,52
139 3 VANESSE Myriam J.C.Montagnard / ATCC A2 2 10,83 5:32 00:39:20 551,35
140 1159 NONNE Giovanni Individuel V2 12 10,83 5:33 00:39:21 550,06
141 1173 VANESCOTE Ingrid Individuel A1 7 10,82 5:33 00:39:22 548,76
142 1142 STRUMELLE Jean-Michel Tortues Meslinoises V2 13 10,81 5:33 00:39:25 547,22
143 7 MARIEN Jean-Luc Individuel V2 14 10,79 5:34 00:39:28 545,67
144 1140 LENOIR Maurine Individuel DA 12 10,78 5:34 00:39:32 544,00
145 1044 VIZZINI Emmanuel Individuel V1 17 10,76 5:35 00:39:36 542,33
146 1219 DRAPPA Sophie CARNIEROIS DA 13 10,69 5:37 00:39:51 539,29
147 1169 MOI Tonino INdividuel V2 15 10,66 5:38 00:39:57 537,38
148 1234 INGLISA Giuseppe Individuel V2 16 10,65 5:38 00:39:59 535,96
149 1098 NOTEZ Nathalie NAC A1 8 10,65 5:38 00:40:00 534,67
150 1047 WALENNE Rene Individuel V2 17 10,65 5:38 00:40:01 533,39
151 266 CECI Gianni J.C.Estinnes EH 11 10,64 5:38 00:40:02 532,10
152 1232 FONZO Vincent Individuel SE 59 10,64 5:38 00:40:02 530,93
153 1091 VALCKE Michael Individuel SE 60 10,61 5:39 00:40:08 529,03
154 185 MONTEGNIES Sabrina Individuel A1 9 10,61 5:39 00:40:09 527,74
155 1323 ADAMSKI Laurent individuel V1 18 10,57 5:41 00:40:18 525,48
156 179 DEN HOUDJKER Willem Joggers Beersel V4 4 10,57 5:41 00:40:19 524,19
157 34 THUNUS Jean-Philippe Jog-Ittre V2 18 10,56 5:41 00:40:20 522,90
158 1256 GUELI Fabrizio Tchat’s Cours SE 61 10,54 5:41 00:40:24 521,25
159 377 ALONGI Fabrizio Tchats’Cours SE 62 10,54 5:41 00:40:24 520,08
160 19 VILERS Julien individuel SE 63 10,54 5:42 00:40:26 518,68
161 1209 DEMOULIN Jerome individuel SE 64 10,52 5:42 00:40:29 517,15
162 1235 FRAGAPANE Flavio Individuel SE 65 10,52 5:42 00:40:29 515,98
163 1146 RENUART Laurent Individuel V1 19 10,48 5:43 00:40:38 513,74
164 1136 PAU Dina Individuel SE 66 10,47 5:44 00:40:41 512,21
165 1131 LO CICERO Massimo INdividuel SE 67 10,45 5:45 00:40:47 510,33
166 1244 NAVEZ Sandy Individuel DA 14 10,41 5:46 00:40:55 508,22
167 1203 WAEGEMAN Rudy Individuel SE 68 10,37 5:47 00:41:04 506,00
168 1198 KARBOWIAK Dominique QUADRA SYMPA V1 20 10,35 5:48 00:41:09 504,25
169 1161 COUDOU Thomas Individuel SE 69 10,33 5:48 00:41:11 502,50
170 1162 COUDOU Nicolas Individuel SE 70 10,33 5:49 00:41:15 501,22
171 1090 FROONINCKX Audrey J.C.Montagnard DA 15 10,32 5:49 00:41:16 499,94
172 1242 COUTELLIER Marie ESM A4 4 10,31 5:49 00:41:18 498,54
173 1241 VLAMYNCK Andre ESM V3 5 10,31 5:49 00:41:19 497,26
174 1139 DELFOSSE Johan Individuel SE 71 10,31 5:49 00:41:19 496,09
175 1011 COLIN Albin Individuel SE 72 10,30 5:49 00:41:21 494,70
176 1067 BOUDART Alain NAC V2 19 10,30 5:49 00:41:21 493,53
177 1113 LAURENT Pierre Individuel V2 20 10,30 5:49 00:41:21 492,36
178 1041 SCIFO Giuseppe Individuel V1 21 10,29 5:50 00:41:22 490,97
179 1135 LIENARD Pascal INdividuel SE 73 10,21 5:53 00:41:43 487,52
180 1097 SAVARINO Alessandro Individuel V1 22 10,19 5:53 00:41:48 485,78
181 72 DIARIO Bruno ACLO V3 6 10,18 5:54 00:41:51 484,28
182 1035 PIGNOLET Angelique Individuel DA 16 10,15 5:55 00:41:58 482,33
183 92 ROBERT Jean-Marc J.C.Estinnes SE 74 10,15 5:55 00:41:59 481,05
184 26 DELHAYE Fabienne irun@waterloo A2 3 10,09 5:57 00:42:12 478,44
185 1176 LAPEIRRE Regis Individuel SE 75 10,09 5:57 00:42:13 477,16
186 1248 BALSAT Philippe BJB V2 21 10,07 5:57 00:42:18 475,44
187 1175 BARONI Alexandra Individuel DA 17 10,07 5:58 00:42:19 474,16
188 1165 MABILLE Jonathan Individuel SE 76 10,06 5:58 00:42:20 472,89
189 37 TERRIBILE Maurice Individuel V4 5 10,06 5:58 00:42:22 471,50
190 1166 KCIUK Sophie Tchat’s Cours DA 18 10,05 5:58 00:42:23 470,23
191 1185 BELLANTE Elsa Individuel JD 4 10,04 5:58 00:42:25 468,84
192 1186 BELLANTE Salvatore Individuel V1 23 10,04 5:59 00:42:26 467,56
193 1077 GARCIA TALAVAN Sergio Individuel SE 77 9,99 6:00 00:42:39 464,98
194 18 CEREGHETTI Eric Individuel V4 6 9,96 6:02 00:42:47 462,95
195 226 CICERO Johanna Individuel DA 19 9,95 6:02 00:42:49 461,57
196 1149 MAHIEU Benoit  de ouf SE 78 9,94 6:02 00:42:52 460,08
197 1137 VERMEERSCH Marie J.C.H/S/H/ A1 10 9,94 6:02 00:42:52 458,91
198 1252 DI BLASIO Donato AMIS FB V3 7 9,93 6:03 00:42:54 457,53
199 1119 VAN POTTELBERGHE Sebastien Individuel V1 24 9,90 6:04 00:43:02 455,51
200 1207 PETRUZZELLA Andrea individuel SE 79 9,90 6:04 00:43:02 454,35
201 1130 CHOTEAU Caroline Individuel A1 11 9,88 6:04 00:43:07 452,65
202 1197 KARBOWIAK Tom Individuel JH 11 9,86 6:05 00:43:11 451,06
203 1190 MILICAMPS Antoine Individuel SE 80 9,86 6:05 00:43:12 449,79
204 1214 BURY Lucas INdividuel JH 12 9,85 6:05 00:43:14 448,41
205 1215 BURY Stephane INdividuel SE 81 9,85 6:05 00:43:14 447,24
206 1108 BASTIN Etienne Individuel V2 22 9,85 6:06 00:43:16 445,87
207 1206 GAY Stephane individuel DA 20 9,82 6:07 00:43:23 443,97
208 137 JANSSENS Alain ESM/ACCO/BARLIN V4 7 9,82 6:07 00:43:24 442,69
209 1172 BARAS Christophe ACLO V1 25 9,81 6:07 00:43:25 441,42
210 907 BERTI Anna-Maria AMIS FB A2 4 9,80 6:07 00:43:29 439,84
211 1083 SPOTO Sergio Individuel V1 26 9,79 6:08 00:43:32 438,36
212 1081 CAMPAGNA Antonia AMIS FB A4 5 9,79 6:08 00:43:31 437,30
213 1229 LEDUC Stephanie Individuel A1 12 9,76 6:09 00:43:38 435,41
214 1180 JACQUEMIN Kenzo Individuel SE 82 9,71 6:11 00:43:53 432,69
215 1179 LOEDT Jeremy Individuel SE 83 9,71 6:11 00:43:53 431,53
216 1138 DANCKAERT Serge J.C.H/S/H/ SE 84 9,68 6:12 00:44:01 429,55
217 1029 MIGLIORE Carmelo Individuel SE 85 9,66 6:13 00:44:07 427,77
218 1245 GLINNE Bernadette Individuel A2 5 9,63 6:14 00:44:14 425,90
219 1000 ABRASSART Maxime Individuel SE 86 9,62 6:14 00:44:16 424,53
220 1154 BURY Françoise aclo A4 6 9,54 6:17 00:44:40 420,97
221 162 DE RUYTER Didier J.C.Estinnes V3 8 9,53 6:18 00:44:41 419,70
222 1246 CLAES ELLEN Individuel DA 21 9,46 6:20 00:45:01 416,58
223 1212 BOUCHAT Alexandra Tortues Meslinoises DA 22 9,48 6:20 00:44:55 416,00
224 193 VAN TIELEN Guy J.C.Estinnes JH 13 9,50 6:19 00:44:50 415,32
225 1076 SANCHEZ GARCIA Emilio J. V1 27 9,51 6:19 00:44:49 414,25
226 1200 BONGIOVANNI Felice Individuel V1 28 9,52 6:18 00:44:45 413,48
227 122 VELGHE Alan Braqu./J.C.Estinnes SE 88 9,46 6:21 00:45:03 410,55
228 1126 PACE Enzo OTS V1 29 9,43 6:22 00:45:11 408,61
229 1253 DATH Marie US PONT A CELLES DA 22 9,42 6:22 00:45:13 407,25
230 1167 MARCHETTI Fabian Individuel SE 89 9,36 6:25 00:45:30 404,45
231 230 LOONEN Willem BVL V4 8 9,32 6:26 00:45:43 402,06
232 1134 MORASSUTTI Corrado INdividuel V2 23 9,31 6:27 00:45:45 400,70
233 1020 HAMACHE Samuel Individuel SE 90 9,28 6:28 00:45:54 398,69
234 1074 BRIZI Paola ACLO A2 6 9,28 6:28 00:45:55 397,43
235 33 PIETTE Gaetan C.A.B.W. SE 91 9,24 6:29 00:46:05 395,33
236 105 DEBIEVE Audrey individuel DA 23 9,24 6:30 00:46:06 394,07
237 1039 ROMANO Anne-Pascale Individuel A1 13 9,24 6:30 00:46:06 392,91
238 1087 INCONNU Individuel XX 2 9,23 6:30 00:46:10 391,37
239 13 LELOIR Carine RACLO A1 14 9,22 6:30 00:46:12 390,02
240 1191 VAN RENTERGHEM Fabian Individuel V2 24 9,21 6:31 00:46:15 388,57
241 903 ARONNE Léa ACLO JD 5 9,21 6:31 00:46:16 387,32
242 1239 MANNO Debora INdividuel A1 15 9,20 6:31 00:46:17 386,06
243 206 COPOIS Marie-Françoise J.T.Besonrieux/HAC A3 1 9,15 6:33 00:46:32 383,52
244 1116 MOTTA Melanie Individuel A1 16 9,13 6:34 00:46:40 381,63
245 1073 DELHELLE Nancy ACLO A1 17 9,11 6:35 00:46:46 379,92
246 1030 MIGLIORE Lina Individuel DA 24 9,05 6:38 00:47:05 377,05
247 1151 MINNELLA Mario Individuel V2 25 9,05 6:38 00:47:04 375,97
248 1240 BRUCCOLERI Valentino INdividuel JH 14 9,03 6:39 00:47:11 374,18
249 1100 SAVARINO Enzo-Bill Individuel V1 30 9,03 6:39 00:47:11 373,02
250 73 GOFFIN Jean-Philippe El Binde à Mickey SE 92 9,02 6:39 00:47:15 371,50
251 189 DE WACHTER Jean-François irun@waterloo V2 26 9,00 6:40 00:47:20 369,89
252 1093 MAENE Anne Individuel DA 25 8,98 6:41 00:47:26 368,20
253 1001 ALONGI Gregory Individuel SE 93 8,97 6:41 00:47:29 366,77
254 1153 DELREZ Kevin Individuel SE 94 8,97 6:41 00:47:29 365,60
255 1182 JAMOTTON Helene 4 FANTASTIQUES DA 26 8,96 6:42 00:47:34 364,00
256 1101 SALADIN Veronique ACLO A2 7 8,93 6:43 00:47:41 362,23
257 223 SCOUBEAU Anne-Marie HAC / La Forestière A5 1 8,92 6:44 00:47:46 360,63
258 1257 SITA Carmelo individuel V1 31 8,91 6:44 00:47:48 359,29
259 1099 SCHELLENS Christian NAC V2 27 8,87 6:46 00:48:01 357,00
260 1089 LEMILLE Martine J.C.Montagnard A2 8 8,84 6:47 00:48:13 354,82
261 216 MOREAUX Patrick ATCC V2 28 8,82 6:48 00:48:18 353,23
262 235 BOUGARD Bernard J.C.Mariemont/PROMU V4 9 8,81 6:48 00:48:20 351,89
263 1222 BONESSO Isabelle Individuel A2 9 8,79 6:50 00:48:28 350,05
264 1088 CICERO Anna INdividuel A2 10 8,78 6:50 00:48:31 348,63
265 1492 VANGYSEGHEM Sylvie individuel A2 11 8,77 6:51 00:48:35 347,13
266 1092 MAENE Sara Individuel DA 27 8,69 6:54 00:49:01 343,81
267 1084 MUTSAARTS Sophie Individuel A1 18 8,70 6:54 00:48:57 342,98
268 1078 NIETO ARIZA Maria Remedios Individuel A1 19 8,71 6:53 00:48:54 342,06
269 1177 LAPEIRRE Delphine Individuel DA 28 8,72 6:53 00:48:51 341,14
270 1021 HENNIXDAL Shirley Athleticop’s DA 29 8,74 6:52 00:48:45 340,47
271 1079 LASHAYAS Estibaliz Individuel DA 30 8,75 6:51 00:48:40 339,72
272 1096 PALUMBO Lucia AMIS FB A3 2 8,66 6:56 00:49:11 336,00
273 1199 VAN WITTENBERGE Fanny QUADRA SYMPA A1 20 8,64 6:57 00:49:18 334,26
274 6 DANIEL Christiane HAC A4 7 8,62 6:57 00:49:24 332,61
275 151 KOUTENTAKIS Emmanuel Individuel V1 32 8,62 6:57 00:49:24 331,44
276 1094 COCCIASECCA Claudia AMIS FB JD 6 8,59 6:59 00:49:34 329,47
277 1050 KESTELOOT Jacques AMIS FB V4 10 8,59 6:59 00:49:34 328,31
278 1132 MORASSUTTI Coralie INdividuel DA 31 8,56 7:01 00:49:46 326,18
279 66 CARLIER Véronique NAC A2 12 8,56 7:01 00:49:46 325,01
280 76 RUELLE Léon J.C.Mariemont V4 11 8,45 7:06 00:50:24 320,86
281 1072 CORDIER Claude ACLO A2 13 8,45 7:06 00:50:26 319,54
282 1152 MINNELLA Melissa Individuel DA 32 8,42 7:08 00:50:37 317,52
283 178 CASTIAUX Michael INdividuel SE 95 8,39 7:09 00:50:48 315,51
284 1213 SANCHEZ Aurelie Individuel DA 33 8,37 7:10 00:50:54 313,89
285 101 PEREIRA Olinda irun@waterloo A1 21 8,36 7:11 00:50:57 312,49
286 1109 JEANMART Valerie Individuel A2 14 8,34 7:12 00:51:04 310,80
287 1106 PAVONCELLI Jessy Individuel DA 34 8,35 7:11 00:51:02 309,78
288 104 ELOY Jean-Claude La Thure V4 12 8,36 7:11 00:50:59 308,84
289 1221 KOZLOWSKI Dorothee Individuel A1 22 8,23 7:17 00:51:46 304,17
290 29 POLAIN Jean-Claude HAC / La Forestière V5 2 8,22 7:18 00:51:49 302,78
291 1192 WOLF Margaux Individuel JD 7 8,18 7:20 00:52:04 300,52
292 1193 WOLF Alexis Individuel V1 33 8,18 7:20 00:52:05 299,28
293 1231 MICHEL Gaelle Individuel DA 35 8,17 7:21 00:52:09 297,82
294 83 GOFFIN René El Binde à Mickey V2 29 8,17 7:21 00:52:10 296,58
295 1178 CATUARA Marlene Individuel DA 36 8,05 7:27 00:52:57 292,06
296 1160 BERTI Jocelyne Individuel A1 23 8,03 7:28 00:53:03 290,47
297 1095 COCCIASECCA Matilda AMIS FB ED 2 8,03 7:28 00:53:03 289,31
298 1184 LESOIL Michelle Individuel A1 24 7,98 7:31 00:53:24 286,68
299 1103 LATTUCA Vincent Individuel SE 96 7,90 7:36 00:53:56 283,32
300 1104 LATTUCA Margaux Individuel DA 37 7,90 7:36 00:53:56 282,15
301 1258 COPPIETERS Bruno Individuel V2 30 7,84 7:39 00:54:22 279,24
302 1122 DELPLANCQ Yves Individuel V2 31 7,76 7:44 00:54:54 275,96
303 1156 PALAZZO Sophie Individuel DA 38 7,78 7:43 00:54:44 275,45
304 1155 ROUGE Nathalie Individuel A1 25 7,78 7:43 00:54:44 274,28
305 74 PUTTAERT Felix J.C.Estinnes V5 3 7,72 7:46 00:55:11 271,35
306 102 BLONDIAUX Valérie RRB A1 26 7,72 7:47 00:55:13 270,06
307 1010 COSSE Valeriane Individuel A1 27 7,70 7:47 00:55:18 268,57
308 71 TRAPANI Raimondo J.C.BRACQ V2 32 7,67 7:49 00:55:31 266,57
309 1057 MOUVET Marie-Claire USBW A5 2 7,61 7:53 00:56:00 263,56
310 200 ANDRINA Beatrice Individuel A2 15 7,57 7:55 00:56:16 261,39
311 1051 LO-CIGNO Nora J.C.Mariemont ED 3 7,57 7:55 00:56:15 260,29
312 1147 BELFIORE Isabelle Les Amis Joggeurs A1 28 7,56 7:56 00:56:20 258,81
313 1148 ARESU Romina Les Amis Joggeurs DA 39 7,56 7:56 00:56:21 257,58
314 65 NUYTEN Florence HAC / J.C.Estinnes A1 29 7,53 7:58 00:56:33 255,68
315 12 WUYS Patricia individuel A2 16 7,51 7:59 00:56:44 253,83
316 15 DRUART Jean-Pol ESM V2 33 7,48 8:02 00:56:59 251,75
317 142 BOSMANS Isabelle J.C.Estinnes A2 17 7,37 8:08 00:57:48 247,65
318 1223 FABJANCZYK Berangere Individuel A1 30 7,36 8:09 00:57:53 246,19
319 263 CAVELIER Sandrine ESM A2 18 7,33 8:11 00:58:09 244,09
320 1187 ZEBIEN Olivier Individuel V1 34 7,30 8:13 00:58:23 242,11
321 1019 FERRARRELLI Antonio Individuel SE 97 7,27 8:15 00:58:35 240,25
322 1210 CHANOINE Ophelie individuel ED 4 7,24 8:17 00:58:49 238,28
323 1211 STEVANONI Perrine individuel DA 40 7,24 8:17 00:58:52 236,95
324 209 THUNUS Rocco Jog-Ittre JH 15 7,19 8:20 00:59:13 234,59
325 211 THUNUS Laeticia Jog-Ittre DA 41 7,15 8:24 00:59:36 232,14
326 145 SCHOONHEYT Julie Individuel DA 42 7,13 8:25 00:59:45 230,47
327 1250 MARTIN Heloise individuel ED 5 7,00 8:35 01:00:54 225,57
328 1251 MUSTIN Harrisson individuel SE 98 7,00 8:35 01:00:54 224,40
329 199 GUYOT Claude El Binde à Mickey V4 13 6,93 8:39 01:01:26 221,55
330 1188 EUSTACHE Celsea Individuel JD 8 6,77 8:51 01:02:53 215,94
331 107 DECUYPER Jean J.C.Estinnes V5 4 6,68 8:59 01:03:45 212,22
332 1003 BOELS Stephanie Individuel DA 43 6,51 9:13 01:05:28 206,18
333 236 GENOT Yvon La Thure V5 5 6,33 9:28 01:07:16 200,18
334 53 PIETTE Melissa individuel ED 6 6,19 9:42 01:08:52 194,93
335 100 GRAUWELS  Barbara individuel A3 3 6,18 9:42 01:08:53 193,72
336 97 PIETTE Pascal C.A.B.W. V2 34 6,18 9:42 01:08:53 192,55
337 1225 ZAGHRAT Tristan Individuel JH 16 5,47 10:58 01:17:52 170,40
338 1230 MINNE Emerick Individuel JH 17 5,47 10:58 01:17:53 169,20
339 91 BEOSIER Monique J.C.Estinnes A5 3 5,36 11:11 01:19:25 165,10
340 99 DESMEDT Daniel J.C.Estinnes V4 14 5,35 11:14 01:19:42 163,41
341 133 DUBOIS Jean-Claude RRB / J.C.Estinnes V4 15 5,55 10:20 01:25:32 158,22
342 954 BERGMANS   Anny JC.Estinnes A5 4 5,14 11:40 01:26:51 156,60
343 956 GRUWIER Jacques J.C.Estinnes V5                                               PHOTOGRAPHE
344 922 BLAIRON Simon Individuel V4                                                    AIDE CHALLENGE
345 952 LELIEVRE Arlette HAC A4                                                   AIDE CHALLENGE
346 975 MAES Yvette J.C.Estinnes A5                                                   AIDE CHALLENGE
347 934 DUBOIS Annie RRB / J.C.Estinnes A4                                                   AIDE CHALLENGE
348 300 DOYEN Yvon J.C.Estinnes /   Zonards L. V4                                                   AIDE CHALLENGE  INFORMATIQUE
JEUNES FOULEES
100 M THUNUS TREVOR 4 ANS GARCONS
LHERMITE PAOLO 3 ANS GARCONS
VERHIELST Malory 4 ans filles
BEVILACOVA Neo 4 ANS GARCONS
DE BUCQ Thiago 2 ans garcons
PROCUREUR Ezechiel 3 ANS GARCONS
VANDERMAEREN Claire 4 ans fi;les
200 M MAHAUX Louis 6 ans garcons
MARTORANA Alessia 5 ans filles
BEVILACQUA Nathan 6 ans garcons
SPELMANS Sonia 6 ANS FILLES
LIENARD Justin 5 ANS GARCONS
SNYDERS Julien 5 ANS GARCONS
VAILLANT Manon 6 ANS FILLES
DELREZ Matteo 6 ans garcons
PROCUREUR Ucillia 5 ans filles
400 M SNYDERS Noah 7 ans garçons
WOLF Alix 8 ans Garcons
LIEGEOIS Tom 7 ans garçons
VAN DER MAREN Florian 7 ans garçons
SPOTO Mirko 8 ans Garcons
DELETRAIN Nokomis 8 ans filles
SPELMANS Mellina 8 ans filles
BUGHIN Lucie 8 ANS FILLES
PROCUREUR Tulia 7 ANS FILLES
DIMARCO Giovanni  8 ANS GARCONS
GUELMANI Lalia 7 ANS FILLES
800 M SABLON Guillaume 10 ans garçons
VAN HAUTER Lilian 10 ans garçons
GARGANO Flavio 10 ans garçons
VANDERMAREN Quentin 9 ans garçons
OUBOUSKOUR Lelia 10 ans filles
STAUTEMAS Florent  10 ans garçons
MARTORANA Manuela 10 ans filles
STAUTEMAS Valentin 10 ans garçons
1000 M SABLON Cassandra 12 ans filles
ROBERT Jennifer 11 ans filles
VALCKE Sullivan 11 a,ns garcons
TUZZE Edwin 11 ans filles

Articles récents